Shiro, TX (77876)

3:13 PM CDT on August 30, 2014 (GMT -0500)
Scales Ranch Road | Change Station
CLOSE
Current Station
Personal Weather Station
Location: Huntsville, TX
Elevation: 318 ft
Nearby Weather Stations

Elev 318 ft 30.77 °N, 95.80 °W | Updated 3 minutes ago

Partly Cloudy
Partly Cloudy
92.4 °F
Feels Like 100 °F
N
1.0
Wind Variable Wind from North
Gusts 7.0 mph

Today
High -- | Low -- °F
--% Chance of Precip.
Yesterday
High -- | Low -- °F
Precip. -- in
6:58 AM 7:48 PM
Waxing Crescent, 24% visible
Pressure 29.91 in
Visibility 10.0 miles
Clouds Mostly Cloudy 7000 ft
Heat Index 100 °F
Dew Point 72 °F
Humidity 51%
Rainfall 0.00 in
Snow Depth Not available.
UV 5 out of 12
Pollen 1.00 out of 12
Air Quality Not available.
Flu Activity Not available.
METAR KUTS 301953Z AUTO 17005KT 10SM BKN070 33/20 A2992 RMK AO2 SLP126 T03280200

More Conditions Fewer Conditions

Pressure 29.91 in
Visibility 10.0 miles
Clouds Mostly Cloudy 7000 ft
Heat Index 100 °F
Dew Point 72 °F
Humidity 51%
Rainfall 0.00 in
Snow Depth Not available.
UV 5 out of 12
Pollen 1.00 out of 12
Air Quality Not available.
Flu Activity Not available.
METAR KUTS 301953Z AUTO 17005KT 10SM BKN070 33/20 A2992 RMK AO2 SLP126 T03280200

More Conditions Fewer Conditions

10-Day Weather Forecast

Almanac

Astronomy

Aug. 30, 2014 Rise Set
Actual Time 6:58 AM CDT 7:48 PM CDT
Civil Twilight 6:34 AM CDT 8:13 PM CDT
Nautical Twilight 6:05 AM CDT 8:42 PM CDT
Astronomical Twilight 5:35 AM CDT 9:12 PM CDT
Moon 11:25 AM CDT 10:46 PM CDT
Length of Visible Light 13h 39m
Length of Day
12h 49m
Tomorrow will be 1m 46s shorter.
Waxing Crescent, 24% of the Moon is Illuminated
Today
Waxing Crescent
Sep 2
First Quarter
Sep 8
Full
Sep 15
Last Quarter
Sep 24
New

Today's Extremes

State Highs State Lows

Community

WunderPhotos

Upload Photos

1,748,622 photos uploaded!

WunderBlogs® & News

Nearby

Snow Depth

Station Depth Elevation
No new snow has been reported.

Earthquake Activity

City Distance Mag. Time & Date
No recent earthquake activity has been reported nearby.
Minimum magnitude displayed is 2.5.

Coastal Water Temperatures

Place Temperature
No Stations Reporting

Nearby Weather Stations